sensor_id;sensor_type;location;lat;lon;timestamp;temperature;humidity
2062;DHT22;11070;51.336;12.340;2023-11-21T00:01:04;7.70;99.90
2062;DHT22;11070;51.336;12.340;2023-11-21T00:03:31;7.70;99.90
2062;DHT22;11070;51.336;12.340;2023-11-21T00:05:56;7.70;99.90
2062;DHT22;11070;51.336;12.340;2023-11-21T00:08:22;7.60;99.90
2062;DHT22;11070;51.336;12.340;2023-11-21T00:10:48;7.60;99.90
2062;DHT22;11070;51.336;12.340;2023-11-21T00:13:14;7.50;99.90
2062;DHT22;11070;51.336;12.340;2023-11-21T00:15:39;7.50;99.90
2062;DHT22;11070;51.336;12.340;2023-11-21T00:18:06;7.50;99.90
2062;DHT22;11070;51.336;12.340;2023-11-21T00:20:31;7.50;99.90
2062;DHT22;11070;51.336;12.340;2023-11-21T00:22:57;7.50;99.90
2062;DHT22;11070;51.336;12.340;2023-11-21T00:25:23;7.40;99.90
2062;DHT22;11070;51.336;12.340;2023-11-21T00:27:50;7.40;99.90
2062;DHT22;11070;51.336;12.340;2023-11-21T00:30:16;7.30;99.90
2062;DHT22;11070;51.336;12.340;2023-11-21T00:32:41;7.30;99.90
2062;DHT22;11070;51.336;12.340;2023-11-21T00:35:07;7.30;99.90
2062;DHT22;11070;51.336;12.340;2023-11-21T00:37:33;7.30;99.90
2062;DHT22;11070;51.336;12.340;2023-11-21T00:39:58;7.30;99.90
2062;DHT22;11070;51.336;12.340;2023-11-21T00:42:24;7.30;99.90
2062;DHT22;11070;51.336;12.340;2023-11-21T00:44:50;7.30;99.90
2062;DHT22;11070;51.336;12.340;2023-11-21T00:47:15;7.30;99.90
2062;DHT22;11070;51.336;12.340;2023-11-21T00:49:41;7.30;99.90
2062;DHT22;11070;51.336;12.340;2023-11-21T00:52:07;7.30;99.90
2062;DHT22;11070;51.336;12.340;2023-11-21T00:54:33;7.30;99.90
2062;DHT22;11070;51.336;12.340;2023-11-21T00:56:59;7.30;99.90
2062;DHT22;11070;51.336;12.340;2023-11-21T00:59:25;7.30;99.90
2062;DHT22;11070;51.336;12.340;2023-11-21T01:01:50;7.20;99.90
2062;DHT22;11070;51.336;12.340;2023-11-21T01:04:16;7.20;99.90
2062;DHT22;11070;51.336;12.340;2023-11-21T01:06:42;7.20;99.90
2062;DHT22;11070;51.336;12.340;2023-11-21T01:09:07;7.20;99.90
2062;DHT22;11070;51.336;12.340;2023-11-21T01:11:34;7.20;99.90
2062;DHT22;11070;51.336;12.340;2023-11-21T01:14:03;7.20;99.90
2062;DHT22;11070;51.336;12.340;2023-11-21T01:16:29;7.20;99.90
2062;DHT22;11070;51.336;12.340;2023-11-21T01:18:58;7.20;99.90
2062;DHT22;11070;51.336;12.340;2023-11-21T01:21:24;7.20;99.90
2062;DHT22;11070;51.336;12.340;2023-11-21T01:23:50;7.20;99.90
2062;DHT22;11070;51.336;12.340;2023-11-21T01:26:16;7.30;99.90
2062;DHT22;11070;51.336;12.340;2023-11-21T01:28:41;7.30;99.90
2062;DHT22;11070;51.336;12.340;2023-11-21T01:31:07;7.40;99.90
2062;DHT22;11070;51.336;12.340;2023-11-21T01:33:33;7.40;99.90
2062;DHT22;11070;51.336;12.340;2023-11-21T01:35:58;7.40;99.90
2062;DHT22;11070;51.336;12.340;2023-11-21T01:38:25;7.50;99.90
2062;DHT22;11070;51.336;12.340;2023-11-21T01:40:51;7.50;99.90
2062;DHT22;11070;51.336;12.340;2023-11-21T01:43:16;7.50;99.90
2062;DHT22;11070;51.336;12.340;2023-11-21T01:45:42;7.60;99.90
2062;DHT22;11070;51.336;12.340;2023-11-21T01:48:10;7.60;99.90
2062;DHT22;11070;51.336;12.340;2023-11-21T01:50:36;7.60;99.90
2062;DHT22;11070;51.336;12.340;2023-11-21T01:53:02;7.70;99.90
2062;DHT22;11070;51.336;12.340;2023-11-21T01:55:28;7.70;99.90
2062;DHT22;11070;51.336;12.340;2023-11-21T01:57:55;7.70;99.90
2062;DHT22;11070;51.336;12.340;2023-11-21T02:00:22;7.80;99.90
2062;DHT22;11070;51.336;12.340;2023-11-21T02:02:49;7.80;99.90
2062;DHT22;11070;51.336;12.340;2023-11-21T02:05:16;7.80;99.90
2062;DHT22;11070;51.336;12.340;2023-11-21T02:07:45;7.80;99.90
2062;DHT22;11070;51.336;12.340;2023-11-21T02:10:15;7.80;99.90
2062;DHT22;11070;51.336;12.340;2023-11-21T02:12:41;7.80;99.90
2062;DHT22;11070;51.336;12.340;2023-11-21T02:15:09;7.80;99.90
2062;DHT22;11070;51.336;12.340;2023-11-21T02:17:43;7.80;99.90
2062;DHT22;11070;51.336;12.340;2023-11-21T02:20:17;7.90;99.90
2062;DHT22;11070;51.336;12.340;2023-11-21T02:22:53;7.90;99.90
2062;DHT22;11070;51.336;12.340;2023-11-21T02:25:27;7.90;99.90
2062;DHT22;11070;51.336;12.340;2023-11-21T02:28:00;7.90;99.90
2062;DHT22;11070;51.336;12.340;2023-11-21T02:30:27;7.90;99.90
2062;DHT22;11070;51.336;12.340;2023-11-21T02:33:02;8.00;99.90
2062;DHT22;11070;51.336;12.340;2023-11-21T02:35:28;8.00;99.90
2062;DHT22;11070;51.336;12.340;2023-11-21T02:37:54;8.00;99.90
2062;DHT22;11070;51.336;12.340;2023-11-21T02:40:20;8.00;99.90
2062;DHT22;11070;51.336;12.340;2023-11-21T02:42:46;8.00;99.90
2062;DHT22;11070;51.336;12.340;2023-11-21T02:45:17;7.90;99.90
2062;DHT22;11070;51.336;12.340;2023-11-21T02:47:45;7.90;99.90
2062;DHT22;11070;51.336;12.340;2023-11-21T02:50:12;7.90;99.90
2062;DHT22;11070;51.336;12.340;2023-11-21T02:52:38;7.90;99.90
2062;DHT22;11070;51.336;12.340;2023-11-21T02:55:06;7.80;99.90
2062;DHT22;11070;51.336;12.340;2023-11-21T02:57:32;7.80;99.90
2062;DHT22;11070;51.336;12.340;2023-11-21T02:59:59;7.80;99.90
2062;DHT22;11070;51.336;12.340;2023-11-21T03:02:25;7.70;99.90
2062;DHT22;11070;51.336;12.340;2023-11-21T03:04:51;7.70;99.90
2062;DHT22;11070;51.336;12.340;2023-11-21T03:07:17;7.60;99.90
2062;DHT22;11070;51.336;12.340;2023-11-21T03:09:45;7.60;99.90
2062;DHT22;11070;51.336;12.340;2023-11-21T03:12:11;7.60;99.90
2062;DHT22;11070;51.336;12.340;2023-11-21T03:14:41;7.50;99.90
2062;DHT22;11070;51.336;12.340;2023-11-21T03:17:07;7.50;99.90
2062;DHT22;11070;51.336;12.340;2023-11-21T03:19:33;7.40;99.90
2062;DHT22;11070;51.336;12.340;2023-11-21T03:21:58;7.40;99.90
2062;DHT22;11070;51.336;12.340;2023-11-21T03:24:24;7.30;99.90
2062;DHT22;11070;51.336;12.340;2023-11-21T03:26:51;7.30;99.90
2062;DHT22;11070;51.336;12.340;2023-11-21T03:29:18;7.20;99.90
2062;DHT22;11070;51.336;12.340;2023-11-21T03:31:44;7.20;99.90
2062;DHT22;11070;51.336;12.340;2023-11-21T03:34:16;7.20;99.90
2062;DHT22;11070;51.336;12.340;2023-11-21T03:36:41;7.20;99.90
2062;DHT22;11070;51.336;12.340;2023-11-21T03:39:07;7.30;99.90
2062;DHT22;11070;51.336;12.340;2023-11-21T03:41:33;7.30;99.90
2062;DHT22;11070;51.336;12.340;2023-11-21T03:43:59;7.40;99.90
2062;DHT22;11070;51.336;12.340;2023-11-21T03:46:25;7.40;99.90
2062;DHT22;11070;51.336;12.340;2023-11-21T03:48:51;7.40;99.90
2062;DHT22;11070;51.336;12.340;2023-11-21T03:51:18;7.50;99.90
2062;DHT22;11070;51.336;12.340;2023-11-21T03:53:43;7.50;99.90
2062;DHT22;11070;51.336;12.340;2023-11-21T03:56:09;7.50;99.90
2062;DHT22;11070;51.336;12.340;2023-11-21T03:58:35;7.50;99.90
2062;DHT22;11070;51.336;12.340;2023-11-21T04:01:00;7.60;99.90
2062;DHT22;11070;51.336;12.340;2023-11-21T04:03:27;7.60;99.90
2062;DHT22;11070;51.336;12.340;2023-11-21T04:05:52;7.60;99.90
2062;DHT22;11070;51.336;12.340;2023-11-21T04:08:18;7.60;99.90
2062;DHT22;11070;51.336;12.340;2023-11-21T04:10:43;7.60;99.90
2062;DHT22;11070;51.336;12.340;2023-11-21T04:13:09;7.60;99.90
2062;DHT22;11070;51.336;12.340;2023-11-21T04:15:36;7.60;99.90
2062;DHT22;11070;51.336;12.340;2023-11-21T04:18:01;7.60;99.90
2062;DHT22;11070;51.336;12.340;2023-11-21T04:20:27;7.60;99.90
2062;DHT22;11070;51.336;12.340;2023-11-21T04:22:53;7.60;99.90
2062;DHT22;11070;51.336;12.340;2023-11-21T04:25:19;7.60;99.90
2062;DHT22;11070;51.336;12.340;2023-11-21T04:27:45;7.60;99.90
2062;DHT22;11070;51.336;12.340;2023-11-21T04:30:12;7.60;99.90
2062;DHT22;11070;51.336;12.340;2023-11-21T04:32:38;7.60;99.90
2062;DHT22;11070;51.336;12.340;2023-11-21T04:35:05;7.70;99.90
2062;DHT22;11070;51.336;12.340;2023-11-21T04:37:30;7.70;99.90
2062;DHT22;11070;51.336;12.340;2023-11-21T04:39:56;7.70;99.90
2062;DHT22;11070;51.336;12.340;2023-11-21T04:42:22;7.70;99.90
2062;DHT22;11070;51.336;12.340;2023-11-21T04:44:48;7.70;99.90
2062;DHT22;11070;51.336;12.340;2023-11-21T04:47:14;7.80;99.90
2062;DHT22;11070;51.336;12.340;2023-11-21T04:49:42;7.80;99.90
2062;DHT22;11070;51.336;12.340;2023-11-21T04:52:09;7.80;99.90
2062;DHT22;11070;51.336;12.340;2023-11-21T04:54:35;7.80;99.90
2062;DHT22;11070;51.336;12.340;2023-11-21T04:57:01;7.80;99.90
2062;DHT22;11070;51.336;12.340;2023-11-21T04:59:27;7.80;99.90
2062;DHT22;11070;51.336;12.340;2023-11-21T05:01:53;7.80;99.90
2062;DHT22;11070;51.336;12.340;2023-11-21T05:04:20;7.80;99.90
2062;DHT22;11070;51.336;12.340;2023-11-21T05:06:48;7.80;99.90
2062;DHT22;11070;51.336;12.340;2023-11-21T05:09:13;7.80;99.90
2062;DHT22;11070;51.336;12.340;2023-11-21T05:11:39;7.80;99.90
2062;DHT22;11070;51.336;12.340;2023-11-21T05:14:06;7.80;99.90
2062;DHT22;11070;51.336;12.340;2023-11-21T05:16:32;7.80;99.90
2062;DHT22;11070;51.336;12.340;2023-11-21T05:18:59;7.80;99.90
2062;DHT22;11070;51.336;12.340;2023-11-21T05:21:27;7.90;99.90
2062;DHT22;11070;51.336;12.340;2023-11-21T05:23:52;7.90;99.90
2062;DHT22;11070;51.336;12.340;2023-11-21T05:26:18;7.90;99.90
2062;DHT22;11070;51.336;12.340;2023-11-21T05:28:44;7.90;99.90
2062;DHT22;11070;51.336;12.340;2023-11-21T05:31:09;7.90;99.90
2062;DHT22;11070;51.336;12.340;2023-11-21T05:33:36;7.90;99.90
2062;DHT22;11070;51.336;12.340;2023-11-21T05:36:02;7.90;99.90
2062;DHT22;11070;51.336;12.340;2023-11-21T05:38:28;7.90;99.90
2062;DHT22;11070;51.336;12.340;2023-11-21T05:40:53;7.90;99.90
2062;DHT22;11070;51.336;12.340;2023-11-21T05:43:19;7.90;99.90
2062;DHT22;11070;51.336;12.340;2023-11-21T05:45:45;7.90;99.90
2062;DHT22;11070;51.336;12.340;2023-11-21T05:48:11;7.90;99.90
2062;DHT22;11070;51.336;12.340;2023-11-21T05:50:37;7.80;99.90
2062;DHT22;11070;51.336;12.340;2023-11-21T05:53:03;7.80;99.90
2062;DHT22;11070;51.336;12.340;2023-11-21T05:55:29;7.80;99.90
2062;DHT22;11070;51.336;12.340;2023-11-21T05:57:55;7.80;99.90
2062;DHT22;11070;51.336;12.340;2023-11-21T06:00:21;7.80;99.90
2062;DHT22;11070;51.336;12.340;2023-11-21T06:02:54;7.80;99.90
2062;DHT22;11070;51.336;12.340;2023-11-21T06:05:21;7.80;99.90
2062;DHT22;11070;51.336;12.340;2023-11-21T06:07:49;7.80;99.90
2062;DHT22;11070;51.336;12.340;2023-11-21T06:10:15;7.80;99.90
2062;DHT22;11070;51.336;12.340;2023-11-21T06:12:43;7.80;99.90
2062;DHT22;11070;51.336;12.340;2023-11-21T06:15:10;7.90;99.90
2062;DHT22;11070;51.336;12.340;2023-11-21T06:17:40;7.90;99.90
2062;DHT22;11070;51.336;12.340;2023-11-21T06:20:07;7.80;99.90
2062;DHT22;11070;51.336;12.340;2023-11-21T06:22:41;7.80;99.90
2062;DHT22;11070;51.336;12.340;2023-11-21T06:25:07;7.80;99.90
2062;DHT22;11070;51.336;12.340;2023-11-21T06:27:40;7.80;99.90
2062;DHT22;11070;51.336;12.340;2023-11-21T06:30:07;7.80;99.90
2062;DHT22;11070;51.336;12.340;2023-11-21T06:32:37;7.80;99.90
2062;DHT22;11070;51.336;12.340;2023-11-21T06:35:04;7.80;99.90
2062;DHT22;11070;51.336;12.340;2023-11-21T06:37:30;7.80;99.90
2062;DHT22;11070;51.336;12.340;2023-11-21T06:39:57;7.80;99.90
2062;DHT22;11070;51.336;12.340;2023-11-21T06:42:24;7.80;99.90
2062;DHT22;11070;51.336;12.340;2023-11-21T06:44:50;7.80;99.90
2062;DHT22;11070;51.336;12.340;2023-11-21T06:47:23;7.80;99.90
2062;DHT22;11070;51.336;12.340;2023-11-21T06:49:53;7.80;99.90
2062;DHT22;11070;51.336;12.340;2023-11-21T06:52:19;7.70;99.90
2062;DHT22;11070;51.336;12.340;2023-11-21T06:54:47;7.70;99.90
2062;DHT22;11070;51.336;12.340;2023-11-21T06:57:15;7.70;99.90
2062;DHT22;11070;51.336;12.340;2023-11-21T06:59:41;7.70;99.90
2062;DHT22;11070;51.336;12.340;2023-11-21T07:02:07;7.70;99.90
2062;DHT22;11070;51.336;12.340;2023-11-21T07:04:33;7.70;99.90
2062;DHT22;11070;51.336;12.340;2023-11-21T07:06:59;7.70;99.90
2062;DHT22;11070;51.336;12.340;2023-11-21T07:09:25;7.80;99.90
2062;DHT22;11070;51.336;12.340;2023-11-21T07:11:52;7.80;99.90
2062;DHT22;11070;51.336;12.340;2023-11-21T07:14:17;7.80;99.90
2062;DHT22;11070;51.336;12.340;2023-11-21T07:16:45;7.80;99.90
2062;DHT22;11070;51.336;12.340;2023-11-21T07:19:11;7.80;99.90
2062;DHT22;11070;51.336;12.340;2023-11-21T07:21:38;7.80;99.90
2062;DHT22;11070;51.336;12.340;2023-11-21T07:24:05;7.80;99.90
2062;DHT22;11070;51.336;12.340;2023-11-21T07:26:32;7.90;99.90
2062;DHT22;11070;51.336;12.340;2023-11-21T07:29:02;7.90;99.90
2062;DHT22;11070;51.336;12.340;2023-11-21T07:31:31;7.90;99.90
2062;DHT22;11070;51.336;12.340;2023-11-21T07:33:59;8.00;99.90
2062;DHT22;11070;51.336;12.340;2023-11-21T07:36:26;8.00;99.90
2062;DHT22;11070;51.336;12.340;2023-11-21T07:38:52;8.00;99.90
2062;DHT22;11070;51.336;12.340;2023-11-21T07:41:18;8.00;99.90
2062;DHT22;11070;51.336;12.340;2023-11-21T07:43:45;8.00;99.90
2062;DHT22;11070;51.336;12.340;2023-11-21T07:46:11;8.00;99.90
2062;DHT22;11070;51.336;12.340;2023-11-21T07:48:41;8.10;99.90
2062;DHT22;11070;51.336;12.340;2023-11-21T07:51:11;8.10;99.90
2062;DHT22;11070;51.336;12.340;2023-11-21T07:53:38;8.10;99.90
2062;DHT22;11070;51.336;12.340;2023-11-21T07:56:09;8.00;99.90
2062;DHT22;11070;51.336;12.340;2023-11-21T07:58:35;8.00;99.90
2062;DHT22;11070;51.336;12.340;2023-11-21T08:01:02;8.00;99.90
2062;DHT22;11070;51.336;12.340;2023-11-21T08:03:29;8.00;99.90
2062;DHT22;11070;51.336;12.340;2023-11-21T08:05:58;8.00;99.90
2062;DHT22;11070;51.336;12.340;2023-11-21T08:08:25;8.00;99.90
2062;DHT22;11070;51.336;12.340;2023-11-21T08:10:51;8.00;99.90
2062;DHT22;11070;51.336;12.340;2023-11-21T08:13:27;8.00;99.90
2062;DHT22;11070;51.336;12.340;2023-11-21T08:15:57;8.00;99.90
2062;DHT22;11070;51.336;12.340;2023-11-21T08:18:27;8.00;99.90
2062;DHT22;11070;51.336;12.340;2023-11-21T08:20:54;7.90;99.90
2062;DHT22;11070;51.336;12.340;2023-11-21T08:23:21;7.80;99.90
2062;DHT22;11070;51.336;12.340;2023-11-21T08:25:50;7.90;99.90
2062;DHT22;11070;51.336;12.340;2023-11-21T08:28:16;7.90;99.90
2062;DHT22;11070;51.336;12.340;2023-11-21T08:30:42;8.00;99.90
2062;DHT22;11070;51.336;12.340;2023-11-21T08:33:08;8.00;99.90
2062;DHT22;11070;51.336;12.340;2023-11-21T08:35:35;8.00;99.90
2062;DHT22;11070;51.336;12.340;2023-11-21T08:38:04;8.00;99.90
2062;DHT22;11070;51.336;12.340;2023-11-21T08:40:30;8.00;99.90
2062;DHT22;11070;51.336;12.340;2023-11-21T08:42:57;7.90;99.90
2062;DHT22;11070;51.336;12.340;2023-11-21T08:45:24;7.90;99.90
2062;DHT22;11070;51.336;12.340;2023-11-21T08:47:51;7.90;99.90
2062;DHT22;11070;51.336;12.340;2023-11-21T08:50:16;7.90;99.90
2062;DHT22;11070;51.336;12.340;2023-11-21T08:52:45;7.90;99.90
2062;DHT22;11070;51.336;12.340;2023-11-21T08:55:13;7.80;99.90
2062;DHT22;11070;51.336;12.340;2023-11-21T08:57:40;7.80;99.90
2062;DHT22;11070;51.336;12.340;2023-11-21T09:00:07;7.80;99.90
2062;DHT22;11070;51.336;12.340;2023-11-21T09:02:38;7.80;99.90
2062;DHT22;11070;51.336;12.340;2023-11-21T09:05:13;7.70;99.90
2062;DHT22;11070;51.336;12.340;2023-11-21T09:07:40;7.80;99.90
2062;DHT22;11070;51.336;12.340;2023-11-21T09:10:07;7.70;99.90
2062;DHT22;11070;51.336;12.340;2023-11-21T09:12:33;7.80;99.90
2062;DHT22;11070;51.336;12.340;2023-11-21T09:15:07;7.70;99.90
2062;DHT22;11070;51.336;12.340;2023-11-21T09:17:33;7.70;99.90
2062;DHT22;11070;51.336;12.340;2023-11-21T09:20:03;7.80;99.90
2062;DHT22;11070;51.336;12.340;2023-11-21T09:22:31;7.80;99.90
2062;DHT22;11070;51.336;12.340;2023-11-21T09:24:57;7.80;99.90
2062;DHT22;11070;51.336;12.340;2023-11-21T09:27:23;7.90;99.90
2062;DHT22;11070;51.336;12.340;2023-11-21T09:29:49;7.80;99.90
2062;DHT22;11070;51.336;12.340;2023-11-21T09:32:15;7.80;99.90
2062;DHT22;11070;51.336;12.340;2023-11-21T09:34:41;7.80;99.90
2062;DHT22;11070;51.336;12.340;2023-11-21T09:37:07;7.80;99.90
2062;DHT22;11070;51.336;12.340;2023-11-21T09:39:34;7.80;99.90
2062;DHT22;11070;51.336;12.340;2023-11-21T09:42:12;7.80;99.90
2062;DHT22;11070;51.336;12.340;2023-11-21T09:44:54;7.80;99.90
2062;DHT22;11070;51.336;12.340;2023-11-21T09:47:24;7.80;99.90
2062;DHT22;11070;51.336;12.340;2023-11-21T09:49:50;7.90;99.90
2062;DHT22;11070;51.336;12.340;2023-11-21T09:52:27;7.90;99.90
2062;DHT22;11070;51.336;12.340;2023-11-21T09:54:54;7.80;99.90
2062;DHT22;11070;51.336;12.340;2023-11-21T09:57:20;7.80;99.90
2062;DHT22;11070;51.336;12.340;2023-11-21T09:59:52;7.90;99.90
2062;DHT22;11070;51.336;12.340;2023-11-21T10:02:26;7.80;99.90
2062;DHT22;11070;51.336;12.340;2023-11-21T10:04:54;7.80;99.90
2062;DHT22;11070;51.336;12.340;2023-11-21T10:07:20;7.80;99.90
2062;DHT22;11070;51.336;12.340;2023-11-21T10:09:47;7.60;99.90
2062;DHT22;11070;51.336;12.340;2023-11-21T10:12:16;7.50;99.90
2062;DHT22;11070;51.336;12.340;2023-11-21T10:14:42;7.50;99.90
2062;DHT22;11070;51.336;12.340;2023-11-21T10:17:10;7.50;99.90
2062;DHT22;11070;51.336;12.340;2023-11-21T10:19:39;7.50;99.90
2062;DHT22;11070;51.336;12.340;2023-11-21T10:22:05;7.50;99.90
2062;DHT22;11070;51.336;12.340;2023-11-21T10:24:32;7.60;99.90
2062;DHT22;11070;51.336;12.340;2023-11-21T10:26:58;7.60;99.90
2062;DHT22;11070;51.336;12.340;2023-11-21T10:29:29;7.50;99.90
2062;DHT22;11070;51.336;12.340;2023-11-21T10:31:55;7.50;99.90
2062;DHT22;11070;51.336;12.340;2023-11-21T10:34:24;7.40;99.90
2062;DHT22;11070;51.336;12.340;2023-11-21T10:36:50;7.40;99.90
2062;DHT22;11070;51.336;12.340;2023-11-21T10:39:20;7.40;99.90
2062;DHT22;11070;51.336;12.340;2023-11-21T10:41:49;7.40;99.90
2062;DHT22;11070;51.336;12.340;2023-11-21T10:44:16;7.40;99.90
2062;DHT22;11070;51.336;12.340;2023-11-21T10:46:47;7.60;99.90
2062;DHT22;11070;51.336;12.340;2023-11-21T10:49:17;7.60;99.90
2062;DHT22;11070;51.336;12.340;2023-11-21T10:51:44;7.70;99.90
2062;DHT22;11070;51.336;12.340;2023-11-21T10:54:09;7.80;99.90
2062;DHT22;11070;51.336;12.340;2023-11-21T10:56:36;7.80;99.90
2062;DHT22;11070;51.336;12.340;2023-11-21T10:59:09;7.80;99.90
2062;DHT22;11070;51.336;12.340;2023-11-21T11:01:37;7.80;99.90
2062;DHT22;11070;51.336;12.340;2023-11-21T11:04:06;7.70;99.90
2062;DHT22;11070;51.336;12.340;2023-11-21T11:06:35;7.60;99.90
2062;DHT22;11070;51.336;12.340;2023-11-21T11:09:01;7.60;99.90
2062;DHT22;11070;51.336;12.340;2023-11-21T11:11:30;7.70;99.90
2062;DHT22;11070;51.336;12.340;2023-11-21T11:13:56;7.70;99.90
2062;DHT22;11070;51.336;12.340;2023-11-21T11:16:26;7.70;99.90
2062;DHT22;11070;51.336;12.340;2023-11-21T11:18:53;7.70;99.90
2062;DHT22;11070;51.336;12.340;2023-11-21T11:33:11;7.70;99.90
2062;DHT22;11070;51.336;12.340;2023-11-21T11:35:56;7.70;99.90
2062;DHT22;11070;51.336;12.340;2023-11-21T11:38:22;7.70;99.90
2062;DHT22;11070;51.336;12.340;2023-11-21T11:40:53;7.60;99.90
2062;DHT22;11070;51.336;12.340;2023-11-21T11:43:26;7.60;99.90
2062;DHT22;11070;51.336;12.340;2023-11-21T11:45:55;7.50;99.90
2062;DHT22;11070;51.336;12.340;2023-11-21T11:48:22;7.60;99.90
2062;DHT22;11070;51.336;12.340;2023-11-21T11:51:05;7.50;99.90
2062;DHT22;11070;51.336;12.340;2023-11-21T11:53:38;7.50;99.90
2062;DHT22;11070;51.336;12.340;2023-11-21T11:56:25;7.40;99.90
2062;DHT22;11070;51.336;12.340;2023-11-21T11:58:54;7.40;99.90
2062;DHT22;11070;51.336;12.340;2023-11-21T12:01:21;7.40;99.90
2062;DHT22;11070;51.336;12.340;2023-11-21T12:06:44;7.30;99.90
2062;DHT22;11070;51.336;12.340;2023-11-21T12:09:20;7.20;99.90
2062;DHT22;11070;51.336;12.340;2023-11-21T12:11:47;7.20;99.90
2062;DHT22;11070;51.336;12.340;2023-11-21T12:14:14;7.20;99.90
2062;DHT22;11070;51.336;12.340;2023-11-21T12:16:40;7.00;99.90
2062;DHT22;11070;51.336;12.340;2023-11-21T12:19:06;6.90;99.90
2062;DHT22;11070;51.336;12.340;2023-11-21T12:21:32;6.90;99.90
2062;DHT22;11070;51.336;12.340;2023-11-21T12:23:58;6.80;99.90
2062;DHT22;11070;51.336;12.340;2023-11-21T12:26:24;6.70;99.90
2062;DHT22;11070;51.336;12.340;2023-11-21T12:28:53;6.70;99.90
2062;DHT22;11070;51.336;12.340;2023-11-21T12:31:25;6.70;99.90
2062;DHT22;11070;51.336;12.340;2023-11-21T12:33:51;6.70;99.90
2062;DHT22;11070;51.336;12.340;2023-11-21T12:36:17;6.60;99.90
2062;DHT22;11070;51.336;12.340;2023-11-21T12:38:43;6.60;99.90
2062;DHT22;11070;51.336;12.340;2023-11-21T12:41:09;6.60;99.90
2062;DHT22;11070;51.336;12.340;2023-11-21T12:43:35;6.60;99.90
2062;DHT22;11070;51.336;12.340;2023-11-21T12:46:08;6.50;99.90
2062;DHT22;11070;51.336;12.340;2023-11-21T12:48:39;6.40;99.90
2062;DHT22;11070;51.336;12.340;2023-11-21T12:51:07;6.10;99.90
2062;DHT22;11070;51.336;12.340;2023-11-21T12:53:33;6.00;99.90
2062;DHT22;11070;51.336;12.340;2023-11-21T12:56:07;5.90;99.90
2062;DHT22;11070;51.336;12.340;2023-11-21T12:58:35;5.80;99.90
2062;DHT22;11070;51.336;12.340;2023-11-21T13:01:01;5.80;99.90
2062;DHT22;11070;51.336;12.340;2023-11-21T13:03:29;5.70;99.90
2062;DHT22;11070;51.336;12.340;2023-11-21T13:05:55;5.70;99.90
2062;DHT22;11070;51.336;12.340;2023-11-21T13:08:25;5.60;99.90
2062;DHT22;11070;51.336;12.340;2023-11-21T13:10:56;5.60;99.90
2062;DHT22;11070;51.336;12.340;2023-11-21T13:13:23;5.70;99.90
2062;DHT22;11070;51.336;12.340;2023-11-21T13:15:54;5.80;99.90
2062;DHT22;11070;51.336;12.340;2023-11-21T13:18:23;5.90;99.90
2062;DHT22;11070;51.336;12.340;2023-11-21T13:20:50;5.80;99.90
2062;DHT22;11070;51.336;12.340;2023-11-21T13:23:16;5.80;99.90
2062;DHT22;11070;51.336;12.340;2023-11-21T13:25:45;5.90;99.90
2062;DHT22;11070;51.336;12.340;2023-11-21T13:28:12;5.90;99.90
2062;DHT22;11070;51.336;12.340;2023-11-21T13:30:40;5.90;99.90
2062;DHT22;11070;51.336;12.340;2023-11-21T13:33:07;5.90;99.90
2062;DHT22;11070;51.336;12.340;2023-11-21T13:35:38;5.90;99.90
2062;DHT22;11070;51.336;12.340;2023-11-21T13:38:17;5.90;99.90
2062;DHT22;11070;51.336;12.340;2023-11-21T13:40:50;5.90;99.90
2062;DHT22;11070;51.336;12.340;2023-11-21T13:43:20;6.00;99.90
2062;DHT22;11070;51.336;12.340;2023-11-21T13:45:48;6.00;99.90
2062;DHT22;11070;51.336;12.340;2023-11-21T13:48:17;6.10;99.90
2062;DHT22;11070;51.336;12.340;2023-11-21T13:50:50;6.20;99.90
2062;DHT22;11070;51.336;12.340;2023-11-21T13:53:25;6.20;99.90
2062;DHT22;11070;51.336;12.340;2023-11-21T13:55:51;6.20;99.90
2062;DHT22;11070;51.336;12.340;2023-11-21T13:58:25;6.20;99.90
2062;DHT22;11070;51.336;12.340;2023-11-21T14:01:10;6.20;99.90
2062;DHT22;11070;51.336;12.340;2023-11-21T14:03:57;6.10;99.90
2062;DHT22;11070;51.336;12.340;2023-11-21T14:06:28;6.10;99.90
2062;DHT22;11070;51.336;12.340;2023-11-21T14:09:00;6.00;99.90
2062;DHT22;11070;51.336;12.340;2023-11-21T14:11:32;6.00;99.90
2062;DHT22;11070;51.336;12.340;2023-11-21T14:13:59;6.10;99.90
2062;DHT22;11070;51.336;12.340;2023-11-21T14:16:25;6.10;99.90
2062;DHT22;11070;51.336;12.340;2023-11-21T14:18:51;6.10;99.90
2062;DHT22;11070;51.336;12.340;2023-11-21T14:21:27;6.10;99.90
2062;DHT22;11070;51.336;12.340;2023-11-21T14:23:52;6.10;99.90
2062;DHT22;11070;51.336;12.340;2023-11-21T14:26:20;6.10;99.90
2062;DHT22;11070;51.336;12.340;2023-11-21T14:28:46;6.10;99.90
2062;DHT22;11070;51.336;12.340;2023-11-21T14:31:14;6.10;99.90
2062;DHT22;11070;51.336;12.340;2023-11-21T14:33:43;6.00;99.90
2062;DHT22;11070;51.336;12.340;2023-11-21T14:36:09;6.00;99.90
2062;DHT22;11070;51.336;12.340;2023-11-21T14:38:36;6.00;99.90
2062;DHT22;11070;51.336;12.340;2023-11-21T14:41:03;6.00;99.90
2062;DHT22;11070;51.336;12.340;2023-11-21T14:43:29;6.00;99.90
2062;DHT22;11070;51.336;12.340;2023-11-21T14:45:59;6.00;99.90
2062;DHT22;11070;51.336;12.340;2023-11-21T14:48:25;6.00;99.90
2062;DHT22;11070;51.336;12.340;2023-11-21T14:51:10;6.00;99.90
2062;DHT22;11070;51.336;12.340;2023-11-21T14:53:59;5.90;99.90
2062;DHT22;11070;51.336;12.340;2023-11-21T14:56:35;5.90;99.90
2062;DHT22;11070;51.336;12.340;2023-11-21T14:59:03;5.80;99.90
2062;DHT22;11070;51.336;12.340;2023-11-21T15:01:37;5.80;99.90
2062;DHT22;11070;51.336;12.340;2023-11-21T15:04:22;5.80;99.90
2062;DHT22;11070;51.336;12.340;2023-11-21T15:07:02;5.80;99.90
2062;DHT22;11070;51.336;12.340;2023-11-21T15:09:29;5.80;99.90
2062;DHT22;11070;51.336;12.340;2023-11-21T15:11:57;5.70;99.90
2062;DHT22;11070;51.336;12.340;2023-11-21T15:14:29;5.70;99.90
2062;DHT22;11070;51.336;12.340;2023-11-21T15:16:58;5.60;99.90
2062;DHT22;11070;51.336;12.340;2023-11-21T15:19:26;5.60;99.90
2062;DHT22;11070;51.336;12.340;2023-11-21T15:21:52;5.60;99.90
2062;DHT22;11070;51.336;12.340;2023-11-21T15:24:17;5.50;99.90
2062;DHT22;11070;51.336;12.340;2023-11-21T15:26:43;5.50;99.90
2062;DHT22;11070;51.336;12.340;2023-11-21T15:29:09;5.50;99.90
2062;DHT22;11070;51.336;12.340;2023-11-21T15:31:36;5.60;99.90
2062;DHT22;11070;51.336;12.340;2023-11-21T15:34:03;5.60;99.90
2062;DHT22;11070;51.336;12.340;2023-11-21T15:36:31;5.60;99.90
2062;DHT22;11070;51.336;12.340;2023-11-21T15:38:57;5.60;99.90
2062;DHT22;11070;51.336;12.340;2023-11-21T15:41:23;5.60;99.90
2062;DHT22;11070;51.336;12.340;2023-11-21T15:43:52;5.70;99.90
2062;DHT22;11070;51.336;12.340;2023-11-21T15:46:17;5.70;99.90
2062;DHT22;11070;51.336;12.340;2023-11-21T15:48:43;5.70;99.90
2062;DHT22;11070;51.336;12.340;2023-11-21T15:51:15;5.70;99.90
2062;DHT22;11070;51.336;12.340;2023-11-21T15:53:42;5.60;99.90
2062;DHT22;11070;51.336;12.340;2023-11-21T15:56:08;5.60;99.90
2062;DHT22;11070;51.336;12.340;2023-11-21T15:58:39;5.60;99.90
2062;DHT22;11070;51.336;12.340;2023-11-21T16:01:09;5.60;99.90
2062;DHT22;11070;51.336;12.340;2023-11-21T16:03:36;5.60;99.90